sensor_id;sensor_type;location;lat;lon;timestamp;P1;durP1;ratioP1;P2;durP2;ratioP2
48925;SDS011;39838;59.938;30.642;2023-02-28T00:00:13;11.25;;;6.55;;
48925;SDS011;39838;59.938;30.642;2023-02-28T00:02:41;12.93;;;6.93;;
48925;SDS011;39838;59.938;30.642;2023-02-28T00:05:10;12.18;;;6.90;;
48925;SDS011;39838;59.938;30.642;2023-02-28T00:07:39;9.98;;;6.03;;
48925;SDS011;39838;59.938;30.642;2023-02-28T00:10:07;10.65;;;6.63;;
48925;SDS011;39838;59.938;30.642;2023-02-28T00:12:37;10.85;;;5.47;;
48925;SDS011;39838;59.938;30.642;2023-02-28T00:15:05;9.45;;;5.97;;
48925;SDS011;39838;59.938;30.642;2023-02-28T00:17:33;5.57;;;4.05;;
48925;SDS011;39838;59.938;30.642;2023-02-28T00:20:01;8.95;;;4.75;;
48925;SDS011;39838;59.938;30.642;2023-02-28T00:22:29;8.27;;;5.15;;
48925;SDS011;39838;59.938;30.642;2023-02-28T00:24:57;12.75;;;5.20;;
48925;SDS011;39838;59.938;30.642;2023-02-28T00:27:24;8.65;;;5.63;;
48925;SDS011;39838;59.938;30.642;2023-02-28T00:29:52;7.82;;;4.80;;
48925;SDS011;39838;59.938;30.642;2023-02-28T00:32:20;7.88;;;4.43;;
48925;SDS011;39838;59.938;30.642;2023-02-28T00:34:47;9.38;;;5.07;;
48925;SDS011;39838;59.938;30.642;2023-02-28T00:37:15;7.40;;;5.25;;
48925;SDS011;39838;59.938;30.642;2023-02-28T00:39:42;6.63;;;4.68;;
48925;SDS011;39838;59.938;30.642;2023-02-28T00:42:09;10.13;;;5.00;;
48925;SDS011;39838;59.938;30.642;2023-02-28T00:44:36;6.30;;;4.22;;
48925;SDS011;39838;59.938;30.642;2023-02-28T00:47:05;5.18;;;3.75;;
48925;SDS011;39838;59.938;30.642;2023-02-28T00:49:32;4.97;;;3.40;;
48925;SDS011;39838;59.938;30.642;2023-02-28T00:51:59;4.00;;;3.00;;
48925;SDS011;39838;59.938;30.642;2023-02-28T00:54:26;5.40;;;3.60;;
48925;SDS011;39838;59.938;30.642;2023-02-28T00:56:53;8.55;;;3.60;;
48925;SDS011;39838;59.938;30.642;2023-02-28T00:59:20;4.80;;;3.28;;
48925;SDS011;39838;59.938;30.642;2023-02-28T01:01:47;8.68;;;3.35;;
48925;SDS011;39838;59.938;30.642;2023-02-28T01:04:16;5.03;;;3.55;;
48925;SDS011;39838;59.938;30.642;2023-02-28T01:06:43;5.28;;;3.55;;
48925;SDS011;39838;59.938;30.642;2023-02-28T01:09:11;5.65;;;3.25;;
48925;SDS011;39838;59.938;30.642;2023-02-28T01:11:38;4.50;;;3.20;;
48925;SDS011;39838;59.938;30.642;2023-02-28T01:14:06;5.28;;;3.00;;
48925;SDS011;39838;59.938;30.642;2023-02-28T01:16:35;8.35;;;3.38;;
48925;SDS011;39838;59.938;30.642;2023-02-28T01:19:02;8.15;;;3.40;;
48925;SDS011;39838;59.938;30.642;2023-02-28T01:21:30;5.60;;;2.80;;
48925;SDS011;39838;59.938;30.642;2023-02-28T01:23:57;4.68;;;3.08;;
48925;SDS011;39838;59.938;30.642;2023-02-28T01:26:24;5.20;;;2.95;;
48925;SDS011;39838;59.938;30.642;2023-02-28T01:28:52;6.90;;;3.40;;
48925;SDS011;39838;59.938;30.642;2023-02-28T01:31:20;5.93;;;3.25;;
48925;SDS011;39838;59.938;30.642;2023-02-28T01:33:49;5.68;;;3.33;;
48925;SDS011;39838;59.938;30.642;2023-02-28T01:36:17;5.18;;;3.10;;
48925;SDS011;39838;59.938;30.642;2023-02-28T01:38:47;6.60;;;3.33;;
48925;SDS011;39838;59.938;30.642;2023-02-28T01:41:16;5.95;;;3.20;;
48925;SDS011;39838;59.938;30.642;2023-02-28T01:44:00;4.05;;;3.20;;
48925;SDS011;39838;59.938;30.642;2023-02-28T01:46:29;5.97;;;3.08;;
48925;SDS011;39838;59.938;30.642;2023-02-28T01:48:59;4.82;;;3.38;;
48925;SDS011;39838;59.938;30.642;2023-02-28T01:51:33;4.97;;;3.05;;
48925;SDS011;39838;59.938;30.642;2023-02-28T01:54:05;5.18;;;2.97;;
48925;SDS011;39838;59.938;30.642;2023-02-28T01:59:08;7.80;;;3.28;;
48925;SDS011;39838;59.938;30.642;2023-02-28T02:01:36;5.45;;;3.30;;
48925;SDS011;39838;59.938;30.642;2023-02-28T02:04:03;6.63;;;3.05;;
48925;SDS011;39838;59.938;30.642;2023-02-28T02:06:34;4.35;;;3.10;;
48925;SDS011;39838;59.938;30.642;2023-02-28T02:09:06;5.25;;;3.03;;
48925;SDS011;39838;59.938;30.642;2023-02-28T02:11:33;5.35;;;3.22;;
48925;SDS011;39838;59.938;30.642;2023-02-28T02:17:06;7.90;;;3.38;;
48925;SDS011;39838;59.938;30.642;2023-02-28T02:19:50;3.65;;;2.80;;
48925;SDS011;39838;59.938;30.642;2023-02-28T02:22:37;5.82;;;3.63;;
48925;SDS011;39838;59.938;30.642;2023-02-28T02:25:27;5.30;;;3.50;;
48925;SDS011;39838;59.938;30.642;2023-02-28T02:31:06;4.40;;;3.35;;
48925;SDS011;39838;59.938;30.642;2023-02-28T02:36:54;5.00;;;3.28;;
48925;SDS011;39838;59.938;30.642;2023-02-28T02:39:27;6.35;;;3.40;;
48925;SDS011;39838;59.938;30.642;2023-02-28T02:42:04;4.57;;;3.20;;
48925;SDS011;39838;59.938;30.642;2023-02-28T02:44:42;6.65;;;3.35;;
48925;SDS011;39838;59.938;30.642;2023-02-28T02:47:13;7.03;;;3.45;;
48925;SDS011;39838;59.938;30.642;2023-02-28T02:49:45;4.75;;;2.80;;
48925;SDS011;39838;59.938;30.642;2023-02-28T02:52:17;9.32;;;3.40;;
48925;SDS011;39838;59.938;30.642;2023-02-28T02:54:47;6.32;;;3.20;;
48925;SDS011;39838;59.938;30.642;2023-02-28T02:57:21;5.97;;;3.47;;
48925;SDS011;39838;59.938;30.642;2023-02-28T02:59:54;8.82;;;4.15;;
48925;SDS011;39838;59.938;30.642;2023-02-28T03:02:22;9.18;;;4.45;;
48925;SDS011;39838;59.938;30.642;2023-02-28T03:04:53;6.65;;;4.03;;
48925;SDS011;39838;59.938;30.642;2023-02-28T03:09:53;5.13;;;3.60;;
48925;SDS011;39838;59.938;30.642;2023-02-28T03:12:22;5.55;;;3.40;;
48925;SDS011;39838;59.938;30.642;2023-02-28T03:14:56;5.07;;;3.45;;
48925;SDS011;39838;59.938;30.642;2023-02-28T03:17:36;7.10;;;3.42;;
48925;SDS011;39838;59.938;30.642;2023-02-28T03:20:30;7.15;;;3.85;;
48925;SDS011;39838;59.938;30.642;2023-02-28T03:23:07;5.30;;;3.40;;
48925;SDS011;39838;59.938;30.642;2023-02-28T03:25:43;7.72;;;3.40;;
48925;SDS011;39838;59.938;30.642;2023-02-28T03:28:22;5.53;;;3.22;;
48925;SDS011;39838;59.938;30.642;2023-02-28T03:30:59;5.63;;;2.90;;
48925;SDS011;39838;59.938;30.642;2023-02-28T03:33:31;5.18;;;2.92;;
48925;SDS011;39838;59.938;30.642;2023-02-28T03:36:04;3.53;;;2.90;;
48925;SDS011;39838;59.938;30.642;2023-02-28T03:38:35;5.53;;;3.20;;
48925;SDS011;39838;59.938;30.642;2023-02-28T03:41:07;4.20;;;3.10;;
48925;SDS011;39838;59.938;30.642;2023-02-28T03:43:41;5.03;;;3.17;;
48925;SDS011;39838;59.938;30.642;2023-02-28T03:46:15;4.45;;;3.03;;
48925;SDS011;39838;59.938;30.642;2023-02-28T03:48:48;3.97;;;3.00;;
48925;SDS011;39838;59.938;30.642;2023-02-28T03:51:24;5.50;;;3.13;;
48925;SDS011;39838;59.938;30.642;2023-02-28T03:53:53;5.97;;;3.05;;
48925;SDS011;39838;59.938;30.642;2023-02-28T03:56:24;5.85;;;3.45;;
48925;SDS011;39838;59.938;30.642;2023-02-28T03:58:58;5.78;;;3.75;;
48925;SDS011;39838;59.938;30.642;2023-02-28T04:01:32;5.90;;;3.75;;
48925;SDS011;39838;59.938;30.642;2023-02-28T04:04:03;5.68;;;3.53;;
48925;SDS011;39838;59.938;30.642;2023-02-28T04:06:32;6.70;;;3.35;;
48925;SDS011;39838;59.938;30.642;2023-02-28T04:09:00;6.03;;;3.30;;
48925;SDS011;39838;59.938;30.642;2023-02-28T04:11:30;4.47;;;3.05;;
48925;SDS011;39838;59.938;30.642;2023-02-28T04:14:00;5.47;;;3.67;;
48925;SDS011;39838;59.938;30.642;2023-02-28T04:16:27;6.15;;;3.28;;
48925;SDS011;39838;59.938;30.642;2023-02-28T04:18:55;4.25;;;3.00;;
48925;SDS011;39838;59.938;30.642;2023-02-28T04:21:27;3.33;;;2.42;;
48925;SDS011;39838;59.938;30.642;2023-02-28T04:23:56;3.45;;;2.88;;
48925;SDS011;39838;59.938;30.642;2023-02-28T04:26:25;6.00;;;3.00;;
48925;SDS011;39838;59.938;30.642;2023-02-28T04:28:55;4.03;;;2.85;;
48925;SDS011;39838;59.938;30.642;2023-02-28T04:31:22;4.15;;;3.00;;
48925;SDS011;39838;59.938;30.642;2023-02-28T04:33:49;4.05;;;2.92;;
48925;SDS011;39838;59.938;30.642;2023-02-28T04:36:16;5.13;;;2.95;;
48925;SDS011;39838;59.938;30.642;2023-02-28T04:38:44;4.63;;;3.10;;
48925;SDS011;39838;59.938;30.642;2023-02-28T04:41:13;4.43;;;3.15;;
48925;SDS011;39838;59.938;30.642;2023-02-28T04:43:40;5.13;;;2.90;;
48925;SDS011;39838;59.938;30.642;2023-02-28T04:46:08;5.03;;;3.03;;
48925;SDS011;39838;59.938;30.642;2023-02-28T04:48:37;4.22;;;3.28;;
48925;SDS011;39838;59.938;30.642;2023-02-28T04:51:05;5.95;;;3.55;;
48925;SDS011;39838;59.938;30.642;2023-02-28T04:53:33;5.28;;;3.20;;
48925;SDS011;39838;59.938;30.642;2023-02-28T04:56:01;4.75;;;3.20;;
48925;SDS011;39838;59.938;30.642;2023-02-28T04:58:30;5.30;;;2.80;;
48925;SDS011;39838;59.938;30.642;2023-02-28T05:01:01;3.50;;;2.70;;
48925;SDS011;39838;59.938;30.642;2023-02-28T05:03:29;5.05;;;3.13;;
48925;SDS011;39838;59.938;30.642;2023-02-28T05:05:56;5.63;;;2.80;;
48925;SDS011;39838;59.938;30.642;2023-02-28T05:08:23;4.80;;;2.47;;
48925;SDS011;39838;59.938;30.642;2023-02-28T05:10:50;3.97;;;2.42;;
48925;SDS011;39838;59.938;30.642;2023-02-28T05:13:17;2.72;;;2.30;;
48925;SDS011;39838;59.938;30.642;2023-02-28T05:15:46;3.72;;;2.92;;
48925;SDS011;39838;59.938;30.642;2023-02-28T05:18:13;4.55;;;2.20;;
48925;SDS011;39838;59.938;30.642;2023-02-28T05:20:40;3.42;;;2.30;;
48925;SDS011;39838;59.938;30.642;2023-02-28T05:23:08;6.07;;;2.67;;
48925;SDS011;39838;59.938;30.642;2023-02-28T05:25:38;5.40;;;2.42;;
48925;SDS011;39838;59.938;30.642;2023-02-28T05:28:05;3.70;;;2.20;;
48925;SDS011;39838;59.938;30.642;2023-02-28T05:30:33;3.38;;;2.58;;
48925;SDS011;39838;59.938;30.642;2023-02-28T05:33:02;2.47;;;1.85;;
48925;SDS011;39838;59.938;30.642;2023-02-28T05:35:29;2.50;;;2.03;;
48925;SDS011;39838;59.938;30.642;2023-02-28T05:37:56;4.35;;;2.72;;
48925;SDS011;39838;59.938;30.642;2023-02-28T05:40:23;4.45;;;2.15;;
48925;SDS011;39838;59.938;30.642;2023-02-28T05:42:50;2.85;;;2.13;;
48925;SDS011;39838;59.938;30.642;2023-02-28T05:45:18;4.25;;;2.50;;
48925;SDS011;39838;59.938;30.642;2023-02-28T05:47:45;3.08;;;2.50;;
48925;SDS011;39838;59.938;30.642;2023-02-28T05:50:13;5.10;;;2.80;;
48925;SDS011;39838;59.938;30.642;2023-02-28T05:52:40;3.53;;;2.70;;
48925;SDS011;39838;59.938;30.642;2023-02-28T05:55:08;2.70;;;1.63;;
48925;SDS011;39838;59.938;30.642;2023-02-28T05:57:35;4.55;;;1.90;;
48925;SDS011;39838;59.938;30.642;2023-02-28T06:00:02;5.05;;;2.00;;
48925;SDS011;39838;59.938;30.642;2023-02-28T06:02:30;2.33;;;1.30;;
48925;SDS011;39838;59.938;30.642;2023-02-28T06:04:57;3.40;;;1.55;;
48925;SDS011;39838;59.938;30.642;2023-02-28T06:07:26;4.85;;;2.03;;
48925;SDS011;39838;59.938;30.642;2023-02-28T06:09:53;4.00;;;1.88;;
48925;SDS011;39838;59.938;30.642;2023-02-28T06:12:20;2.75;;;1.67;;
48925;SDS011;39838;59.938;30.642;2023-02-28T06:14:47;5.20;;;1.80;;
48925;SDS011;39838;59.938;30.642;2023-02-28T06:17:14;3.58;;;1.85;;
48925;SDS011;39838;59.938;30.642;2023-02-28T06:19:41;4.38;;;1.98;;
48925;SDS011;39838;59.938;30.642;2023-02-28T06:22:08;4.72;;;2.08;;
48925;SDS011;39838;59.938;30.642;2023-02-28T06:24:37;4.78;;;1.90;;
48925;SDS011;39838;59.938;30.642;2023-02-28T06:27:04;4.57;;;2.10;;
48925;SDS011;39838;59.938;30.642;2023-02-28T06:29:31;3.60;;;2.10;;
48925;SDS011;39838;59.938;30.642;2023-02-28T06:31:58;4.60;;;1.77;;
48925;SDS011;39838;59.938;30.642;2023-02-28T06:34:26;8.80;;;2.47;;
48925;SDS011;39838;59.938;30.642;2023-02-28T06:36:53;4.95;;;2.25;;
48925;SDS011;39838;59.938;30.642;2023-02-28T06:39:20;5.95;;;2.20;;
48925;SDS011;39838;59.938;30.642;2023-02-28T06:41:49;4.45;;;2.00;;
48925;SDS011;39838;59.938;30.642;2023-02-28T06:44:17;3.63;;;1.90;;
48925;SDS011;39838;59.938;30.642;2023-02-28T06:46:44;6.10;;;1.90;;
48925;SDS011;39838;59.938;30.642;2023-02-28T06:49:12;7.18;;;2.58;;
48925;SDS011;39838;59.938;30.642;2023-02-28T06:51:40;5.53;;;2.30;;
48925;SDS011;39838;59.938;30.642;2023-02-28T06:54:10;4.93;;;2.60;;
48925;SDS011;39838;59.938;30.642;2023-02-28T06:56:37;7.38;;;3.00;;
48925;SDS011;39838;59.938;30.642;2023-02-28T06:59:06;5.53;;;2.75;;
48925;SDS011;39838;59.938;30.642;2023-02-28T07:01:33;5.18;;;2.38;;
48925;SDS011;39838;59.938;30.642;2023-02-28T07:04:00;6.15;;;2.75;;
48925;SDS011;39838;59.938;30.642;2023-02-28T07:06:28;5.22;;;2.50;;
48925;SDS011;39838;59.938;30.642;2023-02-28T07:08:55;4.70;;;2.30;;
48925;SDS011;39838;59.938;30.642;2023-02-28T07:11:22;3.35;;;1.80;;
48925;SDS011;39838;59.938;30.642;2023-02-28T07:13:51;4.28;;;1.92;;
48925;SDS011;39838;59.938;30.642;2023-02-28T07:16:20;4.18;;;1.85;;
48925;SDS011;39838;59.938;30.642;2023-02-28T07:18:48;3.97;;;1.70;;
48925;SDS011;39838;59.938;30.642;2023-02-28T07:21:15;4.55;;;1.80;;
48925;SDS011;39838;59.938;30.642;2023-02-28T07:23:42;4.68;;;1.90;;
48925;SDS011;39838;59.938;30.642;2023-02-28T07:26:10;5.05;;;2.17;;
48925;SDS011;39838;59.938;30.642;2023-02-28T07:28:40;5.43;;;2.00;;
48925;SDS011;39838;59.938;30.642;2023-02-28T07:31:07;3.47;;;1.70;;
48925;SDS011;39838;59.938;30.642;2023-02-28T07:33:37;3.42;;;1.98;;
48925;SDS011;39838;59.938;30.642;2023-02-28T07:36:05;4.07;;;2.08;;
48925;SDS011;39838;59.938;30.642;2023-02-28T07:38:34;3.38;;;1.90;;
48925;SDS011;39838;59.938;30.642;2023-02-28T07:41:01;2.38;;;1.60;;
48925;SDS011;39838;59.938;30.642;2023-02-28T07:43:30;5.18;;;1.80;;
48925;SDS011;39838;59.938;30.642;2023-02-28T07:46:00;5.38;;;1.90;;
48925;SDS011;39838;59.938;30.642;2023-02-28T07:48:28;2.00;;;1.38;;
48925;SDS011;39838;59.938;30.642;2023-02-28T07:50:57;4.38;;;1.77;;
48925;SDS011;39838;59.938;30.642;2023-02-28T07:53:25;2.35;;;1.38;;
48925;SDS011;39838;59.938;30.642;2023-02-28T07:55:54;2.63;;;1.77;;
48925;SDS011;39838;59.938;30.642;2023-02-28T07:58:22;2.83;;;1.80;;
48925;SDS011;39838;59.938;30.642;2023-02-28T08:00:49;4.63;;;1.98;;
48925;SDS011;39838;59.938;30.642;2023-02-28T08:03:17;3.38;;;1.60;;
48925;SDS011;39838;59.938;30.642;2023-02-28T08:05:44;2.78;;;1.80;;
48925;SDS011;39838;59.938;30.642;2023-02-28T08:08:13;2.63;;;1.85;;
48925;SDS011;39838;59.938;30.642;2023-02-28T08:10:40;3.63;;;1.90;;
48925;SDS011;39838;59.938;30.642;2023-02-28T08:13:08;3.03;;;1.88;;
48925;SDS011;39838;59.938;30.642;2023-02-28T08:15:35;2.75;;;1.88;;
48925;SDS011;39838;59.938;30.642;2023-02-28T08:18:02;6.38;;;1.95;;
48925;SDS011;39838;59.938;30.642;2023-02-28T08:20:30;4.28;;;1.90;;
48925;SDS011;39838;59.938;30.642;2023-02-28T08:22:57;5.00;;;2.00;;
48925;SDS011;39838;59.938;30.642;2023-02-28T08:25:25;3.67;;;2.00;;
48925;SDS011;39838;59.938;30.642;2023-02-28T08:27:52;3.83;;;2.25;;
48925;SDS011;39838;59.938;30.642;2023-02-28T08:30:19;4.00;;;2.00;;
48925;SDS011;39838;59.938;30.642;2023-02-28T08:32:46;2.65;;;1.75;;
48925;SDS011;39838;59.938;30.642;2023-02-28T08:35:14;2.80;;;1.60;;
48925;SDS011;39838;59.938;30.642;2023-02-28T08:37:41;2.78;;;1.58;;
48925;SDS011;39838;59.938;30.642;2023-02-28T08:40:09;4.03;;;1.90;;
48925;SDS011;39838;59.938;30.642;2023-02-28T08:42:40;2.70;;;1.80;;
48925;SDS011;39838;59.938;30.642;2023-02-28T08:45:07;2.65;;;1.67;;
48925;SDS011;39838;59.938;30.642;2023-02-28T08:47:34;3.15;;;1.70;;
48925;SDS011;39838;59.938;30.642;2023-02-28T08:50:02;2.72;;;1.80;;
48925;SDS011;39838;59.938;30.642;2023-02-28T08:52:29;3.40;;;1.98;;
48925;SDS011;39838;59.938;30.642;2023-02-28T08:54:56;2.60;;;2.00;;
48925;SDS011;39838;59.938;30.642;2023-02-28T08:57:23;4.03;;;2.03;;
48925;SDS011;39838;59.938;30.642;2023-02-28T08:59:53;2.85;;;1.80;;
48925;SDS011;39838;59.938;30.642;2023-02-28T09:02:20;2.08;;;1.40;;
48925;SDS011;39838;59.938;30.642;2023-02-28T09:04:47;2.97;;;1.92;;
48925;SDS011;39838;59.938;30.642;2023-02-28T09:07:14;5.07;;;1.80;;
48925;SDS011;39838;59.938;30.642;2023-02-28T09:09:42;3.40;;;1.63;;
48925;SDS011;39838;59.938;30.642;2023-02-28T09:12:19;2.25;;;1.35;;
48925;SDS011;39838;59.938;30.642;2023-02-28T09:14:46;4.55;;;1.60;;
48925;SDS011;39838;59.938;30.642;2023-02-28T09:17:14;2.17;;;1.40;;
48925;SDS011;39838;59.938;30.642;2023-02-28T09:19:42;3.13;;;1.50;;
48925;SDS011;39838;59.938;30.642;2023-02-28T09:22:09;1.92;;;1.40;;
48925;SDS011;39838;59.938;30.642;2023-02-28T09:24:37;2.40;;;1.60;;
48925;SDS011;39838;59.938;30.642;2023-02-28T09:27:04;2.88;;;1.70;;
48925;SDS011;39838;59.938;30.642;2023-02-28T09:29:32;5.28;;;1.63;;
48925;SDS011;39838;59.938;30.642;2023-02-28T09:32:00;5.50;;;2.58;;
48925;SDS011;39838;59.938;30.642;2023-02-28T09:34:32;2.17;;;1.50;;
48925;SDS011;39838;59.938;30.642;2023-02-28T09:36:59;2.92;;;1.70;;
48925;SDS011;39838;59.938;30.642;2023-02-28T09:39:26;4.40;;;1.63;;
48925;SDS011;39838;59.938;30.642;2023-02-28T09:41:54;3.30;;;2.05;;
48925;SDS011;39838;59.938;30.642;2023-02-28T09:44:25;3.75;;;1.60;;
48925;SDS011;39838;59.938;30.642;2023-02-28T09:46:56;2.72;;;1.40;;
48925;SDS011;39838;59.938;30.642;2023-02-28T09:49:28;4.80;;;1.65;;
48925;SDS011;39838;59.938;30.642;2023-02-28T09:52:04;4.45;;;1.88;;
48925;SDS011;39838;59.938;30.642;2023-02-28T09:54:35;3.50;;;1.48;;
48925;SDS011;39838;59.938;30.642;2023-02-28T09:57:06;2.97;;;1.77;;
48925;SDS011;39838;59.938;30.642;2023-02-28T09:59:39;3.10;;;1.60;;
48925;SDS011;39838;59.938;30.642;2023-02-28T10:02:20;1.40;;;1.30;;
48925;SDS011;39838;59.938;30.642;2023-02-28T10:05:10;3.00;;;1.63;;
48925;SDS011;39838;59.938;30.642;2023-02-28T10:07:47;3.05;;;1.48;;
48925;SDS011;39838;59.938;30.642;2023-02-28T10:10:25;1.65;;;1.35;;
48925;SDS011;39838;59.938;30.642;2023-02-28T10:12:57;3.95;;;1.58;;
48925;SDS011;39838;59.938;30.642;2023-02-28T10:15:27;1.60;;;1.20;;
48925;SDS011;39838;59.938;30.642;2023-02-28T10:17:58;2.80;;;1.35;;
48925;SDS011;39838;59.938;30.642;2023-02-28T10:20:31;1.58;;;1.20;;
48925;SDS011;39838;59.938;30.642;2023-02-28T10:23:02;4.22;;;1.50;;
48925;SDS011;39838;59.938;30.642;2023-02-28T10:25:36;2.10;;;1.48;;
48925;SDS011;39838;59.938;30.642;2023-02-28T10:28:09;2.58;;;1.65;;
48925;SDS011;39838;59.938;30.642;2023-02-28T10:30:38;3.55;;;1.60;;
48925;SDS011;39838;59.938;30.642;2023-02-28T10:33:09;5.80;;;1.90;;
48925;SDS011;39838;59.938;30.642;2023-02-28T10:35:49;3.70;;;1.60;;
48925;SDS011;39838;59.938;30.642;2023-02-28T10:38:18;2.25;;;1.35;;
48925;SDS011;39838;59.938;30.642;2023-02-28T10:40:46;2.67;;;1.60;;
48925;SDS011;39838;59.938;30.642;2023-02-28T10:43:18;3.28;;;1.65;;
48925;SDS011;39838;59.938;30.642;2023-02-28T10:46:01;3.25;;;1.60;;
48925;SDS011;39838;59.938;30.642;2023-02-28T10:48:32;2.33;;;1.20;;
48925;SDS011;39838;59.938;30.642;2023-02-28T10:51:03;1.70;;;1.40;;
48925;SDS011;39838;59.938;30.642;2023-02-28T10:53:32;1.95;;;1.40;;
48925;SDS011;39838;59.938;30.642;2023-02-28T10:56:03;4.45;;;1.75;;
48925;SDS011;39838;59.938;30.642;2023-02-28T10:58:34;2.10;;;1.23;;
48925;SDS011;39838;59.938;30.642;2023-02-28T11:01:13;3.03;;;1.75;;
48925;SDS011;39838;59.938;30.642;2023-02-28T11:03:43;1.67;;;1.50;;
48925;SDS011;39838;59.938;30.642;2023-02-28T11:06:15;1.42;;;1.30;;
48925;SDS011;39838;59.938;30.642;2023-02-28T11:08:46;2.78;;;1.73;;
48925;SDS011;39838;59.938;30.642;2023-02-28T11:11:15;2.25;;;1.50;;
48925;SDS011;39838;59.938;30.642;2023-02-28T11:13:44;2.70;;;1.65;;
48925;SDS011;39838;59.938;30.642;2023-02-28T11:16:13;6.30;;;1.70;;
48925;SDS011;39838;59.938;30.642;2023-02-28T11:18:42;2.72;;;1.90;;
48925;SDS011;39838;59.938;30.642;2023-02-28T11:21:23;2.50;;;1.42;;
48925;SDS011;39838;59.938;30.642;2023-02-28T11:23:55;3.00;;;1.77;;
48925;SDS011;39838;59.938;30.642;2023-02-28T11:26:40;4.45;;;1.48;;
48925;SDS011;39838;59.938;30.642;2023-02-28T11:29:11;4.75;;;1.38;;
48925;SDS011;39838;59.938;30.642;2023-02-28T11:32:04;3.97;;;1.88;;
48925;SDS011;39838;59.938;30.642;2023-02-28T11:34:38;3.25;;;1.70;;
48925;SDS011;39838;59.938;30.642;2023-02-28T11:37:14;2.92;;;1.30;;
48925;SDS011;39838;59.938;30.642;2023-02-28T11:39:44;1.98;;;1.33;;
48925;SDS011;39838;59.938;30.642;2023-02-28T11:45:26;2.00;;;1.38;;
48925;SDS011;39838;59.938;30.642;2023-02-28T11:48:09;2.55;;;1.65;;
48925;SDS011;39838;59.938;30.642;2023-02-28T11:50:49;2.80;;;1.60;;
48925;SDS011;39838;59.938;30.642;2023-02-28T11:53:35;1.38;;;1.25;;
48925;SDS011;39838;59.938;30.642;2023-02-28T11:56:15;3.95;;;1.55;;
48925;SDS011;39838;59.938;30.642;2023-02-28T11:58:49;2.50;;;1.60;;
48925;SDS011;39838;59.938;30.642;2023-02-28T12:01:31;4.10;;;1.60;;
48925;SDS011;39838;59.938;30.642;2023-02-28T12:04:15;1.30;;;1.20;;
48925;SDS011;39838;59.938;30.642;2023-02-28T12:06:52;4.05;;;1.52;;
48925;SDS011;39838;59.938;30.642;2023-02-28T12:09:32;2.88;;;1.42;;
48925;SDS011;39838;59.938;30.642;2023-02-28T12:12:13;1.90;;;1.27;;
48925;SDS011;39838;59.938;30.642;2023-02-28T12:15:00;1.60;;;1.50;;
48925;SDS011;39838;59.938;30.642;2023-02-28T12:17:46;2.47;;;1.47;;
48925;SDS011;39838;59.938;30.642;2023-02-28T12:20:25;3.20;;;1.48;;
48925;SDS011;39838;59.938;30.642;2023-02-28T12:23:15;1.67;;;1.50;;
48925;SDS011;39838;59.938;30.642;2023-02-28T12:25:57;2.88;;;1.50;;
48925;SDS011;39838;59.938;30.642;2023-02-28T12:28:31;2.15;;;1.27;;
48925;SDS011;39838;59.938;30.642;2023-02-28T12:31:03;2.88;;;1.60;;
48925;SDS011;39838;59.938;30.642;2023-02-28T12:33:39;5.97;;;1.40;;
48925;SDS011;39838;59.938;30.642;2023-02-28T12:36:11;2.67;;;1.20;;
48925;SDS011;39838;59.938;30.642;2023-02-28T12:38:44;4.97;;;1.48;;
48925;SDS011;39838;59.938;30.642;2023-02-28T12:41:16;1.30;;;1.20;;
48925;SDS011;39838;59.938;30.642;2023-02-28T12:43:47;3.00;;;1.60;;
48925;SDS011;39838;59.938;30.642;2023-02-28T12:46:19;1.40;;;1.30;;
48925;SDS011;39838;59.938;30.642;2023-02-28T12:48:50;3.22;;;1.63;;
48925;SDS011;39838;59.938;30.642;2023-02-28T12:51:22;2.38;;;1.52;;
48925;SDS011;39838;59.938;30.642;2023-02-28T12:53:54;2.80;;;1.30;;
48925;SDS011;39838;59.938;30.642;2023-02-28T12:56:33;2.38;;;1.50;;
48925;SDS011;39838;59.938;30.642;2023-02-28T12:59:10;2.50;;;1.40;;
48925;SDS011;39838;59.938;30.642;2023-02-28T13:08:04;2.92;;;1.60;;
48925;SDS011;39838;59.938;30.642;2023-02-28T13:10:47;2.08;;;1.67;;
48925;SDS011;39838;59.938;30.642;2023-02-28T13:13:21;3.53;;;1.40;;
48925;SDS011;39838;59.938;30.642;2023-02-28T13:15:58;2.25;;;1.40;;
48925;SDS011;39838;59.938;30.642;2023-02-28T13:18:27;1.92;;;1.30;;
48925;SDS011;39838;59.938;30.642;2023-02-28T13:20:57;1.90;;;1.42;;
48925;SDS011;39838;59.938;30.642;2023-02-28T13:23:41;2.92;;;1.30;;
48925;SDS011;39838;59.938;30.642;2023-02-28T13:29:28;4.03;;;1.50;;
48925;SDS011;39838;59.938;30.642;2023-02-28T13:38:12;2.20;;;1.50;;
48925;SDS011;39838;59.938;30.642;2023-02-28T13:40:50;1.85;;;1.50;;
48925;SDS011;39838;59.938;30.642;2023-02-28T13:43:17;2.80;;;1.50;;
48925;SDS011;39838;59.938;30.642;2023-02-28T13:46:06;3.67;;;1.60;;
48925;SDS011;39838;59.938;30.642;2023-02-28T13:48:37;4.15;;;1.60;;
48925;SDS011;39838;59.938;30.642;2023-02-28T13:57:03;5.55;;;1.60;;
48925;SDS011;39838;59.938;30.642;2023-02-28T13:59:43;2.22;;;1.52;;
48925;SDS011;39838;59.938;30.642;2023-02-28T14:02:30;1.63;;;1.40;;
48925;SDS011;39838;59.938;30.642;2023-02-28T14:05:12;4.15;;;1.67;;
48925;SDS011;39838;59.938;30.642;2023-02-28T14:07:43;2.03;;;1.50;;
48925;SDS011;39838;59.938;30.642;2023-02-28T14:10:20;2.60;;;1.80;;
48925;SDS011;39838;59.938;30.642;2023-02-28T14:12:58;2.08;;;1.50;;
48925;SDS011;39838;59.938;30.642;2023-02-28T14:18:17;2.15;;;1.70;;
48925;SDS011;39838;59.938;30.642;2023-02-28T14:26:56;1.95;;;1.35;;
48925;SDS011;39838;59.938;30.642;2023-02-28T14:29:38;2.00;;;1.70;;
48925;SDS011;39838;59.938;30.642;2023-02-28T14:32:32;2.55;;;1.70;;
48925;SDS011;39838;59.938;30.642;2023-02-28T14:35:10;1.70;;;1.60;;
48925;SDS011;39838;59.938;30.642;2023-02-28T14:37:45;4.72;;;1.60;;
48925;SDS011;39838;59.938;30.642;2023-02-28T14:40:14;2.08;;;1.50;;
48925;SDS011;39838;59.938;30.642;2023-02-28T14:42:46;1.50;;;1.40;;
48925;SDS011;39838;59.938;30.642;2023-02-28T14:45:18;4.60;;;1.70;;
48925;SDS011;39838;59.938;30.642;2023-02-28T14:47:46;2.28;;;1.65;;
48925;SDS011;39838;59.938;30.642;2023-02-28T14:50:21;3.42;;;1.70;;
48925;SDS011;39838;59.938;30.642;2023-02-28T14:52:51;1.95;;;1.50;;
48925;SDS011;39838;59.938;30.642;2023-02-28T14:55:22;3.20;;;1.85;;
48925;SDS011;39838;59.938;30.642;2023-02-28T14:57:51;2.35;;;1.70;;
48925;SDS011;39838;59.938;30.642;2023-02-28T15:00:22;3.90;;;2.20;;
48925;SDS011;39838;59.938;30.642;2023-02-28T15:02:51;2.10;;;1.70;;
48925;SDS011;39838;59.938;30.642;2023-02-28T15:05:24;3.42;;;2.10;;
48925;SDS011;39838;59.938;30.642;2023-02-28T15:08:04;4.38;;;2.10;;
48925;SDS011;39838;59.938;30.642;2023-02-28T15:10:33;3.53;;;2.25;;
48925;SDS011;39838;59.938;30.642;2023-02-28T15:13:02;4.07;;;2.10;;
48925;SDS011;39838;59.938;30.642;2023-02-28T15:15:35;5.10;;;2.58;;
48925;SDS011;39838;59.938;30.642;2023-02-28T15:18:15;4.20;;;2.30;;
48925;SDS011;39838;59.938;30.642;2023-02-28T15:20:51;5.38;;;2.58;;
48925;SDS011;39838;59.938;30.642;2023-02-28T15:23:20;4.57;;;2.30;;
48925;SDS011;39838;59.938;30.642;2023-02-28T15:25:48;5.75;;;2.45;;
48925;SDS011;39838;59.938;30.642;2023-02-28T15:28:18;5.28;;;2.13;;
48925;SDS011;39838;59.938;30.642;2023-02-28T15:30:51;6.47;;;2.97;;
48925;SDS011;39838;59.938;30.642;2023-02-28T15:33:20;3.17;;;2.17;;
48925;SDS011;39838;59.938;30.642;2023-02-28T15:35:49;6.25;;;2.17;;
48925;SDS011;39838;59.938;30.642;2023-02-28T15:38:21;4.78;;;2.70;;
48925;SDS011;39838;59.938;30.642;2023-02-28T15:40:51;3.60;;;2.30;;
48925;SDS011;39838;59.938;30.642;2023-02-28T15:43:25;7.03;;;2.50;;